LSMELSZA

Guest
Details From LSME - Emmen
To LSZA - Lugano
Flight Number -
Tags decoded
Created
Modified
Stats Distance 78 nm / 145 km
Max Altitude 0 ft / 0 m
Waypoints 7
Social Downloads 1
Likes 0
Share VATSIM

Download

Looking for another format? Having issues loading an existing format? Contact us
Advertisement - Login to hide

Notes

Requested: LSME GERSA N850 SOSON UN850 DEGAD N850 ODINA LSZA Unmatched points: UN850

Route

LSME GERSA N850 ODINA LSZA

ID Type Via Altitude Latitude Longitude Leg Dist Tot Dist Heading (true) Name
O LSME APT - 0 ft / 0 m 47.09237˚ 8.30512˚ - 0 nm - Emmen
GERSA FIX - 0 ft / 0 m 47.03944˚ 8.53222˚ 9 nm 9 nm 109° / 109° -
MALUS FIX N850 (AWY-LO) 0 ft / 0 m 46.82833˚ 8.56250˚ 12 nm 22 nm 174° / 174° -
SOSON FIX N850 (AWY-LO) 0 ft / 0 m 46.60667˚ 8.59417˚ 13 nm 35 nm 174° / 174° -
DEGAD FIX N850 (AWY-LO) 0 ft / 0 m 46.43611˚ 8.61833˚ 10 nm 46 nm 174° / 174° -
ODINA FIX N850 (AWY-LO) 0 ft / 0 m 46.10444˚ 8.66500˚ 20 nm 66 nm 174° / 174° -
O LSZA APT - 0 ft / 0 m 46.00427˚ 8.91058˚ 11 nm 78 nm 120° / 121° Lugano

Altitude Profile

Advertisement - Login to hide

LSME

Details ICAO LSME
Name Emmen
Region Switzerland
Timezone Europe/Zurich (UTC+1.0)
Stats Elevation 1,400 ft / 427 m (AMSL)
Location 47.092369° 8.305118°
Runways 1
Magnetic Variation 2.283° E

METAR

LSME 131850Z AUTO VRB02KT 9999NDV -SHRA FEW055 OVC074 02/M01 Q1008 RMK

Decode

TAF

Not found

Departure Runways

ID Width Length Bearing (true) Bearing (mag) Surface Threshold Offset Overrun Length
04 130 ft / 40 m 8,202 ft / 2,500 m 37.49° 35.21° Asphalt 363 ft / 111 m 810 ft / 247 m
22 130 ft / 40 m 8,202 ft / 2,500 m 217.51° 215.23° Asphalt 596 ft / 182 m 747 ft / 228 m

LSZA

Details ICAO LSZA (LUG)
Name Lugano
Region Switzerland
Timezone Europe/Zurich (UTC+1.0)
Stats Elevation 915 ft / 279 m (AMSL)
Location 46.004275° 8.910579°
Runways 1
Magnetic Variation 2.423° E

METAR

LSZA 131850Z VRB01KT CAVOK M02/M02 Q1015 NOSIG

Decode

TAF

Not found

Destination Runways

ID Width Length Bearing (true) Bearing (mag) Surface Threshold Offset Overrun Length
01 98 ft / 30 m 4,430 ft / 1,350 m 18.79° 16.37° Asphalt 361 ft / 110 m 0 ft / 0 m
19 98 ft / 30 m 4,430 ft / 1,350 m 198.79° 196.37° Asphalt 673 ft / 205 m 0 ft / 0 m

Approach Navaids

Runway Type Ident Frequency Range Bearing (true) Bearing (mag) Slope Elevation
01 Localiser ILU 111.50 MHz 18 nm / 33 km 18.79° 16.37° - 928 ft / 283 m (AMSL)
01 Glidescope ILU 111.50 MHz 10 nm / 19 km 19.99° 17.57° 6.00° 928 ft / 283 m (AMSL)
01 DME ILU 111.50 MHz 18 nm / 33 km - - - 928 ft / 283 m (AMSL)